sensor_id;sensor_type;location;lat;lon;timestamp;pressure;altitude;pressure_sealevel;temperature;humidity
21109;BME280;10712;52.944;9.098;2024-03-17T00:02:22;102264.81;;;12.99;66.37
21109;BME280;10712;52.944;9.098;2024-03-17T00:04:48;102266.53;;;13.00;66.53
21109;BME280;10712;52.944;9.098;2024-03-17T00:07:14;102261.31;;;12.97;66.74
21109;BME280;10712;52.944;9.098;2024-03-17T00:09:41;102263.84;;;13.00;66.75
21109;BME280;10712;52.944;9.098;2024-03-17T00:12:08;102252.38;;;12.98;67.04
21109;BME280;10712;52.944;9.098;2024-03-17T00:14:34;102256.84;;;12.97;67.10
21109;BME280;10712;52.944;9.098;2024-03-17T00:17:01;102260.34;;;12.99;66.99
21109;BME280;10712;52.944;9.098;2024-03-17T00:19:27;102264.81;;;12.99;67.13
21109;BME280;10712;52.944;9.098;2024-03-17T00:21:53;102259.31;;;13.02;67.02
21109;BME280;10712;52.944;9.098;2024-03-17T00:24:22;102268.16;;;13.04;67.20
21109;BME280;10712;52.944;9.098;2024-03-17T00:26:48;102270.00;;;13.02;67.04
21109;BME280;10712;52.944;9.098;2024-03-17T00:29:15;102272.63;;;13.03;67.18
21109;BME280;10712;52.944;9.098;2024-03-17T00:31:41;102269.88;;;13.05;67.05
21109;BME280;10712;52.944;9.098;2024-03-17T00:34:07;102271.75;;;13.03;66.97
21109;BME280;10712;52.944;9.098;2024-03-17T00:36:33;102271.34;;;13.12;66.92
21109;BME280;10712;52.944;9.098;2024-03-17T00:38:59;102273.50;;;13.04;66.98
21109;BME280;10712;52.944;9.098;2024-03-17T00:41:26;102275.34;;;13.02;67.14
21109;BME280;10712;52.944;9.098;2024-03-17T00:43:52;102276.28;;;13.01;67.01
21109;BME280;10712;52.944;9.098;2024-03-17T00:46:20;102273.78;;;12.98;66.90
21109;BME280;10712;52.944;9.098;2024-03-17T00:48:49;102272.75;;;13.00;66.85
21109;BME280;10712;52.944;9.098;2024-03-17T00:51:16;102265.69;;;12.99;66.70
21109;BME280;10712;52.944;9.098;2024-03-17T00:53:42;102266.78;;;12.94;66.87
21109;BME280;10712;52.944;9.098;2024-03-17T00:56:08;102269.56;;;12.92;67.01
21109;BME280;10712;52.944;9.098;2024-03-17T00:58:34;102268.69;;;12.92;66.87
21109;BME280;10712;52.944;9.098;2024-03-17T01:01:00;102268.97;;;12.86;66.76
21109;BME280;10712;52.944;9.098;2024-03-17T01:03:26;102266.47;;;12.81;66.74
21109;BME280;10712;52.944;9.098;2024-03-17T01:05:54;102265.47;;;12.84;66.47
21109;BME280;10712;52.944;9.098;2024-03-17T01:08:20;102267.41;;;12.80;66.58
21109;BME280;10712;52.944;9.098;2024-03-17T01:10:48;102264.00;;;12.77;66.56
21109;BME280;10712;52.944;9.098;2024-03-17T01:13:18;102272.97;;;12.76;66.61
21109;BME280;10712;52.944;9.098;2024-03-17T01:15:44;102267.72;;;12.73;66.66
21109;BME280;10712;52.944;9.098;2024-03-17T01:18:10;102253.56;;;12.71;66.86
21109;BME280;10712;52.944;9.098;2024-03-17T01:20:37;102255.44;;;12.69;67.09
21109;BME280;10712;52.944;9.098;2024-03-17T01:23:04;102255.44;;;12.69;67.08
21109;BME280;10712;52.944;9.098;2024-03-17T01:25:30;102259.97;;;12.67;67.08
21109;BME280;10712;52.944;9.098;2024-03-17T01:27:57;102260.91;;;12.66;67.19
21109;BME280;10712;52.944;9.098;2024-03-17T01:30:23;102252.97;;;12.64;67.19
21109;BME280;10712;52.944;9.098;2024-03-17T01:32:51;102259.84;;;12.70;66.92
21109;BME280;10712;52.944;9.098;2024-03-17T01:35:17;102259.31;;;12.61;67.19
21109;BME280;10712;52.944;9.098;2024-03-17T01:37:43;102253.97;;;12.61;67.21
21109;BME280;10712;52.944;9.098;2024-03-17T01:40:10;102253.13;;;12.59;67.07
21109;BME280;10712;52.944;9.098;2024-03-17T01:42:40;102242.59;;;12.56;67.17
21109;BME280;10712;52.944;9.098;2024-03-17T01:45:29;102242.03;;;12.48;67.17
21109;BME280;10712;52.944;9.098;2024-03-17T01:47:57;102250.13;;;12.47;67.07
21109;BME280;10712;52.944;9.098;2024-03-17T01:50:43;102249.50;;;12.40;67.05
21109;BME280;10712;52.944;9.098;2024-03-17T01:53:12;102244.31;;;12.37;66.91
21109;BME280;10712;52.944;9.098;2024-03-17T01:55:43;102246.28;;;12.32;66.57
21109;BME280;10712;52.944;9.098;2024-03-17T01:58:09;102248.28;;;12.27;66.41
21109;BME280;10712;52.944;9.098;2024-03-17T02:00:39;102248.53;;;12.21;66.62
21109;BME280;10712;52.944;9.098;2024-03-17T02:03:07;102250.41;;;12.19;66.70
21109;BME280;10712;52.944;9.098;2024-03-17T02:05:37;102241.72;;;12.14;66.78
21109;BME280;10712;52.944;9.098;2024-03-17T02:08:05;102244.50;;;12.11;66.56
21109;BME280;10712;52.944;9.098;2024-03-17T02:10:31;102249.06;;;12.09;66.64
21109;BME280;10712;52.944;9.098;2024-03-17T02:12:57;102246.53;;;12.04;66.54
21109;BME280;10712;52.944;9.098;2024-03-17T02:15:23;102243.97;;;12.03;66.28
21109;BME280;10712;52.944;9.098;2024-03-17T02:17:48;102250.34;;;11.99;66.23
21109;BME280;10712;52.944;9.098;2024-03-17T02:20:14;102258.41;;;11.97;66.06
21109;BME280;10712;52.944;9.098;2024-03-17T02:22:40;102252.63;;;11.86;65.74
21109;BME280;10712;52.944;9.098;2024-03-17T02:25:06;102261.09;;;11.75;65.47
21109;BME280;10712;52.944;9.098;2024-03-17T02:27:36;102251.34;;;11.73;65.44
21109;BME280;10712;52.944;9.098;2024-03-17T02:30:05;102252.50;;;11.66;65.55
21109;BME280;10712;52.944;9.098;2024-03-17T02:32:35;102252.69;;;11.61;65.31
21109;BME280;10712;52.944;9.098;2024-03-17T02:35:02;102251.97;;;11.56;65.34
21109;BME280;10712;52.944;9.098;2024-03-17T02:37:27;102253.09;;;11.51;65.31
21109;BME280;10712;52.944;9.098;2024-03-17T02:39:53;102251.41;;;11.48;65.27
21109;BME280;10712;52.944;9.098;2024-03-17T02:42:19;102252.41;;;11.45;65.40
21109;BME280;10712;52.944;9.098;2024-03-17T02:44:45;102256.88;;;11.45;65.29
21109;BME280;10712;52.944;9.098;2024-03-17T02:47:11;102261.34;;;11.44;65.18
21109;BME280;10712;52.944;9.098;2024-03-17T02:49:40;102256.81;;;11.47;65.00
21109;BME280;10712;52.944;9.098;2024-03-17T02:52:10;102259.88;;;11.36;65.42
21109;BME280;10712;52.944;9.098;2024-03-17T02:54:38;102259.09;;;11.34;65.41
21109;BME280;10712;52.944;9.098;2024-03-17T02:57:05;102251.09;;;11.34;65.31
21109;BME280;10712;52.944;9.098;2024-03-17T02:59:32;102257.56;;;11.27;65.44
21109;BME280;10712;52.944;9.098;2024-03-17T03:01:59;102247.88;;;11.24;65.45
21109;BME280;10712;52.944;9.098;2024-03-17T03:04:26;102244.56;;;11.18;65.21
21109;BME280;10712;52.944;9.098;2024-03-17T03:06:53;102253.72;;;11.11;65.16
21109;BME280;10712;52.944;9.098;2024-03-17T03:09:19;102252.88;;;11.09;65.36
21109;BME280;10712;52.944;9.098;2024-03-17T03:11:58;102254.69;;;11.08;65.24
21109;BME280;10712;52.944;9.098;2024-03-17T03:14:26;102260.41;;;10.97;64.98
21109;BME280;10712;52.944;9.098;2024-03-17T03:16:52;102265.75;;;10.97;65.04
21109;BME280;10712;52.944;9.098;2024-03-17T03:19:18;102266.19;;;10.85;64.77
21109;BME280;10712;52.944;9.098;2024-03-17T03:21:45;102269.03;;;10.79;64.73
21109;BME280;10712;52.944;9.098;2024-03-17T03:24:13;102263.63;;;10.82;64.66
21109;BME280;10712;52.944;9.098;2024-03-17T03:26:38;102268.13;;;10.80;64.96
21109;BME280;10712;52.944;9.098;2024-03-17T03:29:04;102263.63;;;10.82;65.08
21109;BME280;10712;52.944;9.098;2024-03-17T03:31:32;102271.63;;;10.82;65.38
21109;BME280;10712;52.944;9.098;2024-03-17T03:33:58;102260.97;;;10.82;65.49
21109;BME280;10712;52.944;9.098;2024-03-17T03:36:27;102266.28;;;10.82;65.41
21109;BME280;10712;52.944;9.098;2024-03-17T03:38:53;102264.53;;;10.81;65.25
21109;BME280;10712;52.944;9.098;2024-03-17T03:41:19;102264.66;;;10.78;65.47
21109;BME280;10712;52.944;9.098;2024-03-17T03:43:45;102263.44;;;10.62;64.75
21109;BME280;10712;52.944;9.098;2024-03-17T03:46:14;102266.19;;;10.59;64.88
21109;BME280;10712;52.944;9.098;2024-03-17T03:48:40;102269.66;;;10.62;65.12
21109;BME280;10712;52.944;9.098;2024-03-17T03:51:07;102267.03;;;10.61;65.12
21109;BME280;10712;52.944;9.098;2024-03-17T03:53:34;102258.94;;;10.64;65.03
21109;BME280;10712;52.944;9.098;2024-03-17T03:56:03;102259.84;;;10.63;65.41
21109;BME280;10712;52.944;9.098;2024-03-17T03:58:33;102253.63;;;10.64;65.18
21109;BME280;10712;52.944;9.098;2024-03-17T04:01:08;102253.63;;;10.64;65.31
21109;BME280;10712;52.944;9.098;2024-03-17T04:03:35;102256.28;;;10.64;65.21
21109;BME280;10712;52.944;9.098;2024-03-17T04:06:06;102260.81;;;10.60;65.17
21109;BME280;10712;52.944;9.098;2024-03-17T04:08:34;102263.53;;;10.59;65.24
21109;BME280;10712;52.944;9.098;2024-03-17T04:11:02;102254.88;;;10.52;64.90
21109;BME280;10712;52.944;9.098;2024-03-17T04:13:29;102259.47;;;10.49;64.85
21109;BME280;10712;52.944;9.098;2024-03-17T04:16:08;102271.00;;;10.49;64.86
21109;BME280;10712;52.944;9.098;2024-03-17T04:18:34;102268.19;;;10.52;65.10
21109;BME280;10712;52.944;9.098;2024-03-17T04:21:05;102260.28;;;10.51;64.88
21109;BME280;10712;52.944;9.098;2024-03-17T04:23:34;102262.94;;;10.51;65.13
21109;BME280;10712;52.944;9.098;2024-03-17T04:26:01;102265.63;;;10.51;64.94
21109;BME280;10712;52.944;9.098;2024-03-17T04:28:29;102266.47;;;10.51;65.19
21109;BME280;10712;52.944;9.098;2024-03-17T04:31:07;102270.81;;;10.54;65.22
21109;BME280;10712;52.944;9.098;2024-03-17T04:33:33;102270.53;;;10.63;65.25
21109;BME280;10712;52.944;9.098;2024-03-17T04:36:00;102269.44;;;10.69;65.03
21109;BME280;10712;52.944;9.098;2024-03-17T04:38:27;102263.94;;;10.73;65.44
21109;BME280;10712;52.944;9.098;2024-03-17T04:40:54;102271.84;;;10.76;65.37
21109;BME280;10712;52.944;9.098;2024-03-17T04:43:31;102269.13;;;10.78;65.67
21109;BME280;10712;52.944;9.098;2024-03-17T04:46:04;102267.38;;;10.77;66.10
21109;BME280;10712;52.944;9.098;2024-03-17T04:48:32;102268.13;;;10.80;66.37
21109;BME280;10712;52.944;9.098;2024-03-17T04:50:59;102271.84;;;10.76;66.27
21109;BME280;10712;52.944;9.098;2024-03-17T04:53:26;102276.13;;;10.80;66.45
21109;BME280;10712;52.944;9.098;2024-03-17T04:56:04;102278.69;;;10.83;66.53
21109;BME280;10712;52.944;9.098;2024-03-17T04:58:34;102272.31;;;10.87;66.49
21109;BME280;10712;52.944;9.098;2024-03-17T05:01:07;102273.16;;;10.89;66.78
21109;BME280;10712;52.944;9.098;2024-03-17T05:03:34;102278.56;;;10.86;66.83
21109;BME280;10712;52.944;9.098;2024-03-17T05:06:04;102278.69;;;10.83;66.75
21109;BME280;10712;52.944;9.098;2024-03-17T05:08:32;102274.25;;;10.84;66.82
21109;BME280;10712;52.944;9.098;2024-03-17T05:11:03;102288.22;;;10.90;66.59
21109;BME280;10712;52.944;9.098;2024-03-17T05:13:34;102286.47;;;10.89;66.81
21109;BME280;10712;52.944;9.098;2024-03-17T05:16:01;102291.97;;;10.85;66.96
21109;BME280;10712;52.944;9.098;2024-03-17T05:18:27;102281.41;;;10.82;66.97
21109;BME280;10712;52.944;9.098;2024-03-17T05:21:05;102289.25;;;10.86;67.11
21109;BME280;10712;52.944;9.098;2024-03-17T05:23:33;102290.72;;;10.95;67.32
21109;BME280;10712;52.944;9.098;2024-03-17T05:26:00;102287.09;;;10.97;67.33
21109;BME280;10712;52.944;9.098;2024-03-17T05:28:28;102290.50;;;11.01;67.34
21109;BME280;10712;52.944;9.098;2024-03-17T05:30:55;102286.88;;;11.03;67.37
21109;BME280;10712;52.944;9.098;2024-03-17T05:33:24;102295.69;;;11.05;67.48
21109;BME280;10712;52.944;9.098;2024-03-17T05:35:59;102292.41;;;10.97;67.42
21109;BME280;10712;52.944;9.098;2024-03-17T05:38:29;102294.03;;;11.01;67.39
21109;BME280;10712;52.944;9.098;2024-03-17T05:41:00;102290.22;;;11.09;67.51
21109;BME280;10712;52.944;9.098;2024-03-17T05:43:28;102294.59;;;11.11;67.43
21109;BME280;10712;52.944;9.098;2024-03-17T05:45:58;102293.81;;;11.07;67.69
21109;BME280;10712;52.944;9.098;2024-03-17T05:48:25;102290.13;;;11.12;67.75
21109;BME280;10712;52.944;9.098;2024-03-17T05:50:51;102296.88;;;11.22;67.79
21109;BME280;10712;52.944;9.098;2024-03-17T05:53:18;102298.59;;;11.23;67.99
21109;BME280;10712;52.944;9.098;2024-03-17T05:55:44;102300.25;;;11.27;67.82
21109;BME280;10712;52.944;9.098;2024-03-17T05:58:10;102302.97;;;11.25;68.05
21109;BME280;10712;52.944;9.098;2024-03-17T06:00:39;102301.59;;;11.14;68.00
21109;BME280;10712;52.944;9.098;2024-03-17T06:03:06;102310.97;;;11.00;68.02
21109;BME280;10712;52.944;9.098;2024-03-17T06:05:37;102308.28;;;11.00;68.06
21109;BME280;10712;52.944;9.098;2024-03-17T06:08:04;102306.13;;;11.12;68.13
21109;BME280;10712;52.944;9.098;2024-03-17T06:10:35;102311.34;;;11.15;68.29
21109;BME280;10712;52.944;9.098;2024-03-17T06:13:02;102313.00;;;11.19;68.38
21109;BME280;10712;52.944;9.098;2024-03-17T06:15:29;102317.34;;;11.21;68.62
21109;BME280;10712;52.944;9.098;2024-03-17T06:17:55;102321.59;;;11.27;68.66
21109;BME280;10712;52.944;9.098;2024-03-17T06:20:25;102320.72;;;11.26;68.76
21109;BME280;10712;52.944;9.098;2024-03-17T06:22:55;102319.72;;;11.29;68.62
21109;BME280;10712;52.944;9.098;2024-03-17T06:25:21;102316.84;;;11.35;68.70
21109;BME280;10712;52.944;9.098;2024-03-17T06:27:51;102316.69;;;11.39;68.97
21109;BME280;10712;52.944;9.098;2024-03-17T06:30:17;102313.16;;;11.39;68.71
21109;BME280;10712;52.944;9.098;2024-03-17T06:32:45;102308.50;;;11.44;68.69
21109;BME280;10712;52.944;9.098;2024-03-17T06:35:12;102304.34;;;11.60;68.46
21109;BME280;10712;52.944;9.098;2024-03-17T06:37:42;102303.53;;;11.58;68.71
21109;BME280;10712;52.944;9.098;2024-03-17T06:40:14;102306.19;;;11.58;69.03
21109;BME280;10712;52.944;9.098;2024-03-17T06:42:40;102300.81;;;11.60;69.16
21109;BME280;10712;52.944;9.098;2024-03-17T06:45:06;102313.03;;;11.65;69.37
21109;BME280;10712;52.944;9.098;2024-03-17T06:47:39;102316.41;;;11.70;69.37
21109;BME280;10712;52.944;9.098;2024-03-17T06:50:06;102315.16;;;11.80;69.57
21109;BME280;10712;52.944;9.098;2024-03-17T06:52:36;102303.31;;;11.88;69.27
21109;BME280;10712;52.944;9.098;2024-03-17T06:55:02;102308.53;;;11.91;69.53
21109;BME280;10712;52.944;9.098;2024-03-17T06:57:28;102301.34;;;11.93;69.59
21109;BME280;10712;52.944;9.098;2024-03-17T06:59:54;102301.38;;;11.91;69.76
21109;BME280;10712;52.944;9.098;2024-03-17T07:02:20;102305.94;;;11.89;69.69
21109;BME280;10712;52.944;9.098;2024-03-17T07:04:47;102301.91;;;11.77;69.91
21109;BME280;10712;52.944;9.098;2024-03-17T07:07:14;102300.94;;;11.80;69.79
21109;BME280;10712;52.944;9.098;2024-03-17T07:09:42;102302.50;;;11.86;70.14
21109;BME280;10712;52.944;9.098;2024-03-17T07:12:10;102302.16;;;11.95;69.95
21109;BME280;10712;52.944;9.098;2024-03-17T07:14:37;102300.16;;;12.00;70.30
21109;BME280;10712;52.944;9.098;2024-03-17T07:17:03;102311.53;;;12.05;70.16
21109;BME280;10712;52.944;9.098;2024-03-17T07:19:30;102309.69;;;12.07;70.18
21109;BME280;10712;52.944;9.098;2024-03-17T07:21:57;102308.69;;;12.09;70.31
21109;BME280;10712;52.944;9.098;2024-03-17T07:24:23;102309.19;;;12.19;70.36
21109;BME280;10712;52.944;9.098;2024-03-17T07:26:50;102310.81;;;12.23;70.42
21109;BME280;10712;52.944;9.098;2024-03-17T07:29:16;102308.81;;;12.28;70.45
21109;BME280;10712;52.944;9.098;2024-03-17T07:31:44;102309.56;;;12.32;70.52
21109;BME280;10712;52.944;9.098;2024-03-17T07:34:10;102309.31;;;12.38;70.58
21109;BME280;10712;52.944;9.098;2024-03-17T07:36:36;102309.59;;;12.52;70.33
21109;BME280;10712;52.944;9.098;2024-03-17T07:39:02;102304.19;;;12.53;70.64
21109;BME280;10712;52.944;9.098;2024-03-17T07:41:28;102305.84;;;12.57;70.89
21109;BME280;10712;52.944;9.098;2024-03-17T07:43:54;102311.69;;;12.66;70.84
21109;BME280;10712;52.944;9.098;2024-03-17T07:46:19;102321.09;;;12.76;70.61
21109;BME280;10712;52.944;9.098;2024-03-17T07:48:45;102318.31;;;12.79;70.69
21109;BME280;10712;52.944;9.098;2024-03-17T07:51:16;102327.91;;;12.83;70.92
21109;BME280;10712;52.944;9.098;2024-03-17T07:53:46;102318.59;;;12.93;70.85
21109;BME280;10712;52.944;9.098;2024-03-17T07:56:15;102325.16;;;13.06;70.84
21109;BME280;10712;52.944;9.098;2024-03-17T07:58:43;102322.78;;;13.20;70.80
21109;BME280;10712;52.944;9.098;2024-03-17T08:01:12;102322.78;;;13.20;71.07
21109;BME280;10712;52.944;9.098;2024-03-17T08:03:41;102325.16;;;13.47;70.93
21109;BME280;10712;52.944;9.098;2024-03-17T08:06:08;102334.22;;;13.43;71.20
21109;BME280;10712;52.944;9.098;2024-03-17T08:08:34;102324.34;;;13.45;71.48
21109;BME280;10712;52.944;9.098;2024-03-17T08:11:01;102322.72;;;13.61;71.22
21109;BME280;10712;52.944;9.098;2024-03-17T08:13:30;102329.81;;;13.62;71.49
21109;BME280;10712;52.944;9.098;2024-03-17T08:18:28;102321.84;;;13.79;71.48
21109;BME280;10712;52.944;9.098;2024-03-17T08:20:54;102326.78;;;13.88;71.36
21109;BME280;10712;52.944;9.098;2024-03-17T08:23:22;102314.97;;;13.92;71.55
21109;BME280;10712;52.944;9.098;2024-03-17T08:25:59;102324.47;;;13.99;71.44
21109;BME280;10712;52.944;9.098;2024-03-17T08:28:26;102319.56;;;14.09;71.39
21109;BME280;10712;52.944;9.098;2024-03-17T08:31:00;102323.50;;;14.19;71.39
21109;BME280;10712;52.944;9.098;2024-03-17T08:33:28;102319.22;;;14.34;71.38
21109;BME280;10712;52.944;9.098;2024-03-17T08:36:08;102310.47;;;14.49;70.66
21109;BME280;10712;52.944;9.098;2024-03-17T08:38:36;102313.00;;;14.52;70.88
21109;BME280;10712;52.944;9.098;2024-03-17T08:41:04;102317.44;;;14.70;70.63
21109;BME280;10712;52.944;9.098;2024-03-17T08:43:31;102323.03;;;14.83;70.52
21109;BME280;10712;52.944;9.098;2024-03-17T08:46:03;102320.91;;;14.89;70.46
21109;BME280;10712;52.944;9.098;2024-03-17T08:48:31;102310.66;;;14.97;70.19
21109;BME280;10712;52.944;9.098;2024-03-17T08:50:58;102311.19;;;15.04;70.31
21109;BME280;10712;52.944;9.098;2024-03-17T08:53:25;102311.91;;;15.08;70.16
21109;BME280;10712;52.944;9.098;2024-03-17T08:55:53;102313.03;;;15.21;69.74
21109;BME280;10712;52.944;9.098;2024-03-17T08:58:19;102311.50;;;15.32;69.31
21109;BME280;10712;52.944;9.098;2024-03-17T09:00:45;102311.66;;;15.29;69.55
21109;BME280;10712;52.944;9.098;2024-03-17T09:03:11;102310.47;;;15.35;69.34
21109;BME280;10712;52.944;9.098;2024-03-17T09:05:43;102304.78;;;15.41;69.14
21109;BME280;10712;52.944;9.098;2024-03-17T09:08:18;102304.50;;;15.46;68.93
21109;BME280;10712;52.944;9.098;2024-03-17T09:10:47;102298.88;;;15.50;68.49
21109;BME280;10712;52.944;9.098;2024-03-17T09:13:19;102305.88;;;15.54;67.93
21109;BME280;10712;52.944;9.098;2024-03-17T09:15:52;102304.13;;;15.53;67.57
21109;BME280;10712;52.944;9.098;2024-03-17T09:18:18;102309.03;;;15.62;66.75
21109;BME280;10712;52.944;9.098;2024-03-17T09:20:45;102305.69;;;15.57;66.93
21109;BME280;10712;52.944;9.098;2024-03-17T09:23:11;102311.72;;;15.62;66.53
21109;BME280;10712;52.944;9.098;2024-03-17T09:25:37;102306.22;;;15.64;66.56
21109;BME280;10712;52.944;9.098;2024-03-17T09:28:03;102310.25;;;15.72;66.27
21109;BME280;10712;52.944;9.098;2024-03-17T09:30:29;102308.88;;;15.81;65.84
21109;BME280;10712;52.944;9.098;2024-03-17T09:32:55;102306.88;;;15.85;65.75
21109;BME280;10712;52.944;9.098;2024-03-17T09:35:21;102307.31;;;15.93;65.23
21109;BME280;10712;52.944;9.098;2024-03-17T09:37:47;102304.28;;;15.99;65.07
21109;BME280;10712;52.944;9.098;2024-03-17T09:40:16;102304.00;;;16.19;63.99
21109;BME280;10712;52.944;9.098;2024-03-17T09:42:42;102297.16;;;16.29;63.66
21109;BME280;10712;52.944;9.098;2024-03-17T09:45:12;102307.13;;;16.43;63.11
21109;BME280;10712;52.944;9.098;2024-03-17T09:47:40;102312.31;;;16.46;62.95
21109;BME280;10712;52.944;9.098;2024-03-17T09:50:13;102309.47;;;16.49;62.86
21109;BME280;10712;52.944;9.098;2024-03-17T09:52:42;102303.31;;;16.63;62.67
21109;BME280;10712;52.944;9.098;2024-03-17T09:55:15;102309.91;;;16.73;61.25
21109;BME280;10712;52.944;9.098;2024-03-17T09:57:42;102310.34;;;16.65;61.41
21109;BME280;10712;52.944;9.098;2024-03-17T10:00:14;102305.22;;;16.61;61.32
21109;BME280;10712;52.944;9.098;2024-03-17T10:02:47;102299.66;;;16.64;61.45
21109;BME280;10712;52.944;9.098;2024-03-17T10:05:23;102305.38;;;16.73;61.40
21109;BME280;10712;52.944;9.098;2024-03-17T10:07:51;102301.34;;;16.80;61.14
21109;BME280;10712;52.944;9.098;2024-03-17T10:10:20;102306.00;;;16.92;60.47
21109;BME280;10712;52.944;9.098;2024-03-17T10:12:50;102297.66;;;16.97;60.19
21109;BME280;10712;52.944;9.098;2024-03-17T10:15:18;102297.50;;;17.14;58.14
21109;BME280;10712;52.944;9.098;2024-03-17T10:17:44;102300.19;;;17.14;58.82
21109;BME280;10712;52.944;9.098;2024-03-17T10:20:21;102299.59;;;17.09;58.87
21109;BME280;10712;52.944;9.098;2024-03-17T10:23:06;102301.69;;;17.04;59.01
21109;BME280;10712;52.944;9.098;2024-03-17T10:25:38;102294.41;;;17.06;59.46
21109;BME280;10712;52.944;9.098;2024-03-17T10:28:12;102297.84;;;17.08;59.81
21109;BME280;10712;52.944;9.098;2024-03-17T10:30:39;102306.81;;;17.23;59.45
21109;BME280;10712;52.944;9.098;2024-03-17T10:33:07;102305.75;;;17.11;59.03
21109;BME280;10712;52.944;9.098;2024-03-17T10:35:38;102298.94;;;17.20;58.99
21109;BME280;10712;52.944;9.098;2024-03-17T10:38:07;102298.09;;;17.19;57.83
21109;BME280;10712;52.944;9.098;2024-03-17T10:40:34;102303.47;;;17.19;58.65
21109;BME280;10712;52.944;9.098;2024-03-17T10:43:03;102313.00;;;17.25;58.92
21109;BME280;10712;52.944;9.098;2024-03-17T10:45:29;102307.34;;;17.44;58.54
21109;BME280;10712;52.944;9.098;2024-03-17T10:48:02;102305.97;;;17.51;56.93
21109;BME280;10712;52.944;9.098;2024-03-17T10:50:37;102308.50;;;17.40;57.83
21109;BME280;10712;52.944;9.098;2024-03-17T10:53:05;102307.16;;;17.47;58.04
21109;BME280;10712;52.944;9.098;2024-03-17T10:55:46;102306.09;;;17.63;57.91
21109;BME280;10712;52.944;9.098;2024-03-17T10:58:21;102293.69;;;17.89;57.09
21109;BME280;10712;52.944;9.098;2024-03-17T11:00:50;102297.88;;;18.07;56.53
21109;BME280;10712;52.944;9.098;2024-03-17T11:03:18;102284.03;;;17.99;56.77
21109;BME280;10712;52.944;9.098;2024-03-17T11:05:48;102284.72;;;18.03;56.72
21109;BME280;10712;52.944;9.098;2024-03-17T11:08:16;102277.91;;;18.24;56.14
21109;BME280;10712;52.944;9.098;2024-03-17T11:10:52;102278.19;;;18.20;55.99
21109;BME280;10712;52.944;9.098;2024-03-17T11:13:31;102275.44;;;18.34;54.99
21109;BME280;10712;52.944;9.098;2024-03-17T11:15:58;102254.28;;;18.28;55.13
21109;BME280;10712;52.944;9.098;2024-03-17T11:21:24;102255.84;;;18.44;56.17
21109;BME280;10712;52.944;9.098;2024-03-17T11:24:02;102253.22;;;18.57;55.15
21109;BME280;10712;52.944;9.098;2024-03-17T11:26:32;102255.69;;;18.60;54.71
21109;BME280;10712;52.944;9.098;2024-03-17T11:28:59;102255.69;;;18.60;54.13
21109;BME280;10712;52.944;9.098;2024-03-17T11:31:40;102255.31;;;18.66;53.70
21109;BME280;10712;52.944;9.098;2024-03-17T11:34:37;102252.41;;;18.55;53.87
21109;BME280;10712;52.944;9.098;2024-03-17T11:37:06;102256.91;;;18.42;54.34
21109;BME280;10712;52.944;9.098;2024-03-17T11:39:53;102257.91;;;18.54;55.04
21109;BME280;10712;52.944;9.098;2024-03-17T11:42:26;102258.22;;;18.76;53.63
21109;BME280;10712;52.944;9.098;2024-03-17T11:45:13;102255.06;;;18.69;53.54
21109;BME280;10712;52.944;9.098;2024-03-17T11:47:41;102251.94;;;18.63;53.95
21109;BME280;10712;52.944;9.098;2024-03-17T11:50:10;102257.16;;;18.52;54.58
21109;BME280;10712;52.944;9.098;2024-03-17T11:52:38;102255.69;;;18.60;54.97
21109;BME280;10712;52.944;9.098;2024-03-17T11:55:16;102247.84;;;18.82;53.21
21109;BME280;10712;52.944;9.098;2024-03-17T11:57:43;102245.66;;;18.62;54.36
21109;BME280;10712;52.944;9.098;2024-03-17T12:00:23;102251.69;;;18.53;54.74
21109;BME280;10712;52.944;9.098;2024-03-17T12:02:50;102249.72;;;18.55;55.31
21109;BME280;10712;52.944;9.098;2024-03-17T12:05:16;102242.59;;;18.54;55.07
21109;BME280;10712;52.944;9.098;2024-03-17T12:07:43;102242.41;;;18.57;55.47
21109;BME280;10712;52.944;9.098;2024-03-17T12:10:11;102245.88;;;18.59;55.38
21109;BME280;10712;52.944;9.098;2024-03-17T12:12:39;102234.72;;;18.51;55.23
21109;BME280;10712;52.944;9.098;2024-03-17T12:15:17;102241.81;;;18.66;55.28
21109;BME280;10712;52.944;9.098;2024-03-17T12:17:44;102231.66;;;18.70;54.91
21109;BME280;10712;52.944;9.098;2024-03-17T12:20:20;102223.88;;;18.65;55.03
21109;BME280;10712;52.944;9.098;2024-03-17T12:22:47;102217.72;;;18.63;55.50
21109;BME280;10712;52.944;9.098;2024-03-17T12:25:19;102218.38;;;18.67;55.34
21109;BME280;10712;52.944;9.098;2024-03-17T12:27:46;102218.91;;;18.84;54.97
21109;BME280;10712;52.944;9.098;2024-03-17T12:30:15;102219.25;;;18.80;54.54
21109;BME280;10712;52.944;9.098;2024-03-17T12:32:41;102216.66;;;18.78;54.84
21109;BME280;10712;52.944;9.098;2024-03-17T12:35:15;102223.22;;;18.74;54.57
21109;BME280;10712;52.944;9.098;2024-03-17T12:37:45;102213.41;;;18.86;54.61
21109;BME280;10712;52.944;9.098;2024-03-17T12:40:22;102215.06;;;19.01;53.50
21109;BME280;10712;52.944;9.098;2024-03-17T12:42:50;102207.59;;;19.05;53.57
21109;BME280;10712;52.944;9.098;2024-03-17T12:45:22;102210.72;;;18.99;53.11
21109;BME280;10712;52.944;9.098;2024-03-17T12:47:51;102208.78;;;19.01;53.14
21109;BME280;10712;52.944;9.098;2024-03-17T12:50:17;102196.00;;;19.03;53.57
21109;BME280;10712;52.944;9.098;2024-03-17T12:52:56;102198.50;;;19.06;53.50
21109;BME280;10712;52.944;9.098;2024-03-17T12:55:22;102205.72;;;19.18;53.51
21109;BME280;10712;52.944;9.098;2024-03-17T12:58:09;102194.94;;;19.18;52.02
21109;BME280;10712;52.944;9.098;2024-03-17T13:01:05;102194.75;;;19.08;52.78
21109;BME280;10712;52.944;9.098;2024-03-17T13:03:36;102193.00;;;19.07;52.66
21109;BME280;10712;52.944;9.098;2024-03-17T13:06:04;102199.69;;;19.27;52.95